Time;durP1;ratioP1;P1;durP2;ratioP2;P2;SDS_P1;SDS_P2;PMS_P1;PMS_P2;Temp;Humidity;BMP_temperature;BMP_pressure;BME280_temperature;BME280_humidity;BME280_pressure;Samples;Min_cycle;Max_cycle;Signal;HPM_P1;HPM_P2
2021/05/01 00:00:01;;;;;;;35.53;31.77;;;;;;;7.44;100.00;98368.22;4737562;29;103142;-75
2021/05/01 00:02:38;;;;;;;30.30;25.93;;;;;;;7.45;100.00;98362.91;4738096;29;102619;-75
2021/05/01 00:05:08;;;;;;;27.53;24.60;;;;;;;7.58;100.00;98355.88;4752522;29;105063;-75
2021/05/01 00:07:35;;;;;;;35.77;32.07;;;;;;;7.51;100.00;98365.13;4755948;29;103842;-75
2021/05/01 00:10:03;;;;;;;38.73;34.47;;;;;;;7.26;100.00;98359.78;4747396;29;102621;-74
2021/05/01 00:12:31;;;;;;;40.80;36.30;;;;;;;7.05;100.00;98362.91;4744615;29;103133;-76
2021/05/01 00:15:01;;;;;;;38.47;34.27;;;;;;;7.22;100.00;98358.28;4734539;29;106218;-73
2021/05/01 00:17:28;;;;;;;43.53;38.80;;;;;;;7.18;100.00;98369.94;4737196;29;103901;-74
2021/05/01 00:19:55;;;;;;;32.10;28.60;;;;;;;7.36;100.00;98371.38;4737363;29;103179;-74
2021/05/01 00:22:22;;;;;;;39.67;35.37;;;;;;;7.34;100.00;98368.00;4744730;29;103407;-74
2021/05/01 00:24:49;;;;;;;40.43;35.23;;;;;;;7.35;100.00;98372.31;4755344;29;103831;-76
2021/05/01 00:27:16;;;;;;;38.07;34.07;;;;;;;7.42;100.00;98363.09;4741391;29;103927;-74
2021/05/01 00:29:43;;;;;;;34.00;30.33;;;;;;;7.53;100.00;98365.88;4736752;29;103079;-76
2021/05/01 00:32:10;;;;;;;38.77;34.67;;;;;;;7.54;100.00;98351.78;4735589;29;103514;-75
2021/05/01 00:34:38;;;;;;;30.17;26.97;;;;;;;7.65;100.00;98364.22;4737220;29;103933;-74
2021/05/01 00:37:05;;;;;;;27.47;24.57;;;;;;;7.74;100.00;98355.75;4738369;29;104904;-75
2021/05/01 00:39:32;;;;;;;39.80;35.47;;;;;;;7.65;99.96;98352.84;4755361;29;105286;-74
2021/05/01 00:41:59;;;;;;;35.57;31.67;;;;;;;7.50;100.00;98352.06;4754685;29;103079;-84
2021/05/01 00:44:26;;;;;;;42.60;36.70;;;;;;;7.45;100.00;98357.63;4737615;29;104649;-75
2021/05/01 00:46:54;;;;;;;37.83;33.63;;;;;;;7.49;100.00;98343.34;4734970;29;109788;-74
2021/05/01 00:49:21;;;;;;;35.07;31.37;;;;;;;7.46;100.00;98348.81;4736993;29;107340;-76
2021/05/01 00:51:49;;;;;;;40.27;35.77;;;;;;;7.57;100.00;98346.34;4737175;29;103020;-74
2021/05/01 00:54:16;;;;;;;36.23;32.37;;;;;;;7.60;100.00;98340.03;4738171;29;103945;-74
2021/05/01 00:56:43;;;;;;;39.67;35.37;;;;;;;7.36;100.00;98342.47;4737805;29;104295;-74
2021/05/01 00:59:10;;;;;;;44.40;38.07;;;;;;;7.22;100.00;98334.63;4730266;29;103474;-74
2021/05/01 01:01:37;;;;;;;42.17;35.23;;;;;;;7.19;100.00;98334.81;4722558;29;102763;-75
2021/05/01 01:04:06;;;;;;;41.67;37.10;;;;;;;7.20;100.00;98331.25;4737026;29;104597;-74
2021/05/01 01:06:33;;;;;;;43.13;37.37;;;;;;;7.20;100.00;98331.25;4720123;29;105032;-74
2021/05/01 01:09:00;;;;;;;47.10;40.37;;;;;;;7.12;100.00;98335.31;4737046;29;102970;-76
2021/05/01 01:11:27;;;;;;;43.90;38.20;;;;;;;7.20;100.00;98336.50;4727390;29;103076;-74
2021/05/01 01:14:06;;;;;;;47.50;41.40;;;;;;;7.13;100.00;98345.72;4721195;29;103411;-74
2021/05/01 01:16:34;;;;;;;51.87;42.43;;;;;;;7.20;100.00;98347.03;4718768;29;103724;-75
2021/05/01 01:19:02;;;;;;;34.53;30.77;;;;;;;7.39;100.00;98350.16;4718425;29;103086;-75
2021/05/01 01:21:30;;;;;;;40.03;33.17;;;;;;;7.49;100.00;98340.69;4729576;29;103113;-76
2021/05/01 01:23:58;;;;;;;46.63;41.50;;;;;;;7.34;100.00;98336.47;4731419;29;104156;-74
2021/05/01 01:26:25;;;;;;;49.87;41.80;;;;;;;7.24;100.00;98335.34;4728277;29;104843;-75
2021/05/01 01:28:52;;;;;;;48.03;41.17;;;;;;;7.26;100.00;98344.00;4704380;29;103552;-76
2021/05/01 01:31:19;;;;;;;45.10;39.17;;;;;;;7.27;100.00;98331.72;4736156;29;103060;-74
2021/05/01 01:33:46;;;;;;;40.43;34.73;;;;;;;7.47;100.00;98342.59;4717917;29;103911;-76
2021/05/01 01:36:13;;;;;;;42.87;38.20;;;;;;;7.56;100.00;98330.63;4716060;29;103928;-77
2021/05/01 01:38:40;;;;;;;35.43;30.83;;;;;;;7.65;100.00;98342.34;4718776;29;102869;-75
2021/05/01 01:41:08;;;;;;;45.13;39.07;;;;;;;7.66;100.00;98342.25;4717419;29;102790;-74
2021/05/01 01:43:37;;;;;;;43.13;38.07;;;;;;;7.65;100.00;98337.09;4716690;29;105064;-74
2021/05/01 01:46:04;;;;;;;34.50;30.67;;;;;;;7.74;100.00;98339.97;4734324;29;104143;-73
2021/05/01 01:48:31;;;;;;;36.93;32.93;;;;;;;7.73;100.00;98337.41;4707481;29;102979;-76
2021/05/01 01:50:58;;;;;;;31.60;28.20;;;;;;;7.74;100.00;98341.75;4713886;29;102972;-77
2021/05/01 01:53:25;;;;;;;29.83;26.60;;;;;;;7.79;100.00;98339.63;4722241;29;107306;-74
2021/05/01 01:55:52;;;;;;;41.07;36.63;;;;;;;7.81;100.00;98343.00;4719377;29;111720;-76
2021/05/01 01:58:20;;;;;;;42.57;37.30;;;;;;;7.70;100.00;98353.38;4718261;29;103099;-74
2021/05/01 02:00:49;;;;;;;29.73;26.47;;;;;;;7.80;100.00;98341.34;4715887;29;105054;-78
2021/05/01 02:03:17;;;;;;;30.60;27.40;;;;;;;7.86;100.00;98347.00;4724677;29;103979;-74
2021/05/01 02:05:45;;;;;;;29.97;26.47;;;;;;;7.90;100.00;98345.03;4718568;29;104557;-74
2021/05/01 02:08:12;;;;;;;34.87;31.23;;;;;;;7.90;99.70;98337.13;4712730;29;102998;-73
2021/05/01 02:10:39;;;;;;;43.20;38.60;;;;;;;7.64;98.49;98332.75;4718175;29;102904;-74
2021/05/01 02:13:07;;;;;;;46.03;40.10;;;;;;;7.24;100.00;98326.66;4719462;29;103455;-74
2021/05/01 02:15:35;;;;;;;50.20;42.23;;;;;;;7.16;100.00;98340.25;4714426;29;103710;-76
2021/05/01 02:18:04;;;;;;;43.07;38.27;;;;;;;7.27;100.00;98337.78;4719344;29;103155;-74
2021/05/01 02:20:33;;;;;;;46.23;40.37;;;;;;;7.28;100.00;98338.63;4732499;29;103014;-76
2021/05/01 02:23:01;;;;;;;49.33;40.17;;;;;;;7.26;100.00;98341.38;4730175;29;104004;-73
2021/05/01 02:25:28;;;;;;;39.20;33.13;;;;;;;7.32;100.00;98338.38;4720376;29;104694;-74
2021/05/01 02:27:56;;;;;;;36.37;30.93;;;;;;;7.37;100.00;98340.69;4720600;29;104314;-77
2021/05/01 02:30:26;;;;;;;47.37;41.50;;;;;;;7.29;99.95;98335.06;4720920;29;103339;-74
2021/05/01 02:32:54;;;;;;;47.47;40.27;;;;;;;7.11;100.00;98334.47;4719652;29;104985;-74
2021/05/01 02:35:24;;;;;;;50.43;42.93;;;;;;;7.03;100.00;98323.63;4720801;29;104818;-76
2021/05/01 02:37:51;;;;;;;51.07;42.40;;;;;;;6.83;100.00;98324.03;4731931;29;102876;-74
2021/05/01 02:40:19;;;;;;;56.60;42.83;;;;;;;6.62;100.00;98312.25;4702559;29;103010;-73
2021/05/01 02:42:46;;;;;;;58.20;43.07;;;;;;;6.58;100.00;98318.63;4703021;29;104136;-74
2021/05/01 02:45:16;;;;;;;49.40;41.10;;;;;;;6.54;100.00;98325.03;4719600;29;103661;-77
2021/05/01 02:47:44;;;;;;;57.13;43.20;;;;;;;6.40;100.00;98320.59;4728478;29;102918;-75
2021/05/01 02:50:14;;;;;;;52.93;42.63;;;;;;;6.49;100.00;98311.31;4712944;29;104903;-74
2021/05/01 02:52:41;;;;;;;57.10;43.83;;;;;;;6.39;100.00;98311.91;4707364;29;107100;-74
2021/05/01 02:55:10;;;;;;;47.63;39.37;;;;;;;6.55;100.00;98305.69;4719545;29;104270;-75
2021/05/01 02:57:37;;;;;;;64.10;45.60;;;;;;;6.28;100.00;98303.84;4720905;29;103172;-73
2021/05/01 03:00:07;;;;;;;60.13;44.43;;;;;;;6.26;100.00;98302.25;4715021;29;102933;-77
2021/05/01 03:02:34;;;;;;;73.07;49.07;;;;;;;6.16;100.00;98294.09;4725148;29;103997;-78
2021/05/01 03:05:01;;;;;;;95.33;45.93;;;;;;;6.13;100.00;98283.78;4721673;29;109894;-74
2021/05/01 03:07:33;;;;;;;87.83;41.77;;;;;;;6.17;100.00;98287.06;4722436;29;102968;-75
2021/05/01 03:10:01;;;;;;;244.07;55.40;;;;;;;6.14;100.00;98279.38;4710777;29;103216;-74
2021/05/01 03:12:28;;;;;;;440.53;63.00;;;;;;;6.10;100.00;98280.50;4719647;29;109229;-74
2021/05/01 03:14:55;;;;;;;160.10;46.73;;;;;;;6.05;100.00;98280.78;4718258;29;104908;-74
2021/05/01 03:17:21;;;;;;;448.47;56.90;;;;;;;5.93;100.00;98271.03;4716792;29;103157;-74
2021/05/01 03:19:49;;;;;;;546.03;63.73;;;;;;;5.74;100.00;98257.31;4720515;29;103072;-78
2021/05/01 03:22:15;;;;;;;462.67;56.30;;;;;;;5.69;100.00;98264.63;4719888;29;103888;-75
2021/05/01 03:24:43;;;;;;;765.93;69.23;;;;;;;5.57;100.00;98265.31;4719768;29;103757;-77
2021/05/01 03:27:10;;;;;;;300.40;45.97;;;;;;;5.61;100.00;98267.69;4719811;29;103114;-75
2021/05/01 03:29:38;;;;;;;369.00;53.30;;;;;;;5.82;100.00;98273.41;4723605;29;103373;-74
2021/05/01 03:32:06;;;;;;;148.43;39.03;;;;;;;5.83;100.00;98275.97;4712240;29;104094;-76
2021/05/01 03:34:33;;;;;;;480.73;58.53;;;;;;;5.61;100.00;98261.59;4734825;29;103825;-75
2021/05/01 03:37:00;;;;;;;380.63;51.83;;;;;;;5.51;100.00;98242.94;4720564;29;102895;-75
2021/05/01 03:39:27;;;;;;;40.30;31.67;;;;;;;5.77;100.00;98257.13;4720162;29;102955;-74
2021/05/01 03:41:59;;;;;;;37.77;29.33;;;;;;;5.99;100.00;98265.41;4719901;29;103406;-74
2021/05/01 03:44:26;;;;;;;88.00;41.00;;;;;;;6.06;100.00;98271.16;4723035;29;103787;-74
2021/05/01 03:46:53;;;;;;;37.63;30.17;;;;;;;6.13;100.00;98275.91;4729215;29;103063;-73
2021/05/01 03:49:20;;;;;;;31.73;24.43;;;;;;;6.21;100.00;98273.66;4719040;29;103232;-74
2021/05/01 03:51:48;;;;;;;47.10;32.27;;;;;;;6.15;100.00;98271.41;4701453;29;104026;-76
2021/05/01 03:54:15;;;;;;;39.50;30.90;;;;;;;6.13;100.00;98269.81;4720561;29;105020;-78
2021/05/01 03:56:42;;;;;;;29.73;24.63;;;;;;;6.25;100.00;98267.31;4714128;29;103141;-76
2021/05/01 03:59:10;;;;;;;58.03;41.13;;;;;;;6.16;100.00;98267.88;4720167;29;103094;-76
2021/05/01 04:01:37;;;;;;;43.00;32.23;;;;;;;6.05;100.00;98259.81;4719621;29;103928;-74
2021/05/01 04:04:04;;;;;;;52.30;38.27;;;;;;;6.12;100.00;98268.97;4716285;29;103852;-74
2021/05/01 04:06:31;;;;;;;42.23;34.47;;;;;;;6.18;100.00;98263.34;4718801;29;103037;-75
2021/05/01 04:08:58;;;;;;;32.27;27.80;;;;;;;6.31;100.00;98272.19;4719855;29;103107;-75
2021/05/01 04:11:25;;;;;;;33.40;29.30;;;;;;;6.38;100.00;98273.47;4719182;29;110733;-82
2021/05/01 04:13:52;;;;;;;31.23;25.00;;;;;;;6.47;100.00;98276.47;4719589;29;106068;-74
2021/05/01 04:16:20;;;;;;;32.83;26.93;;;;;;;6.55;100.00;98295.19;4720620;29;107390;-74
2021/05/01 04:18:47;;;;;;;24.90;21.37;;;;;;;6.61;100.00;98290.41;4718476;29;103060;-73
2021/05/01 04:21:15;;;;;;;117.70;35.20;;;;;;;6.51;100.00;98283.22;4718892;29;103983;-75
2021/05/01 04:23:42;;;;;;;71.83;32.97;;;;;;;6.29;100.00;98274.03;4720749;29;103860;-75
2021/05/01 04:26:10;;;;;;;40.67;29.13;;;;;;;6.25;100.00;98283.03;4719376;29;102690;-76
2021/05/01 04:28:37;;;;;;;76.77;34.20;;;;;;;6.30;100.00;98288.84;4719342;29;103038;-74
2021/05/01 04:31:04;;;;;;;34.10;29.07;;;;;;;6.39;100.00;98290.91;4718727;29;103968;-74
2021/05/01 04:33:32;;;;;;;27.23;23.67;;;;;;;6.52;100.00;98290.97;4718858;29;103746;-74
2021/05/01 04:35:59;;;;;;;35.57;27.97;;;;;;;6.65;100.00;98301.56;4713347;29;104360;-73
2021/05/01 04:38:26;;;;;;;56.40;33.03;;;;;;;6.62;100.00;98296.50;4718769;29;103004;-79
2021/05/01 04:40:54;;;;;;;45.63;32.50;;;;;;;6.50;100.00;98297.25;4718873;29;104192;-74
2021/05/01 04:43:24;;;;;;;128.30;39.33;;;;;;;6.32;100.00;98294.84;4719421;29;103777;-73
2021/05/01 04:45:51;;;;;;;35.23;30.90;;;;;;;6.38;100.00;98283.97;4731720;29;103013;-76
2021/05/01 04:48:18;;;;;;;44.07;32.93;;;;;;;6.48;100.00;98288.66;4711210;29;103262;-75
2021/05/01 04:50:50;;;;;;;40.20;33.27;;;;;;;6.46;100.00;98290.53;4711425;29;105548;-75
2021/05/01 04:53:17;;;;;;;30.20;26.67;;;;;;;6.56;100.00;98292.50;4716248;29;104728;-75
2021/05/01 04:55:45;;;;;;;31.43;26.43;;;;;;;6.69;100.00;98297.78;4719428;29;103127;-73
2021/05/01 04:58:12;;;;;;;51.77;39.87;;;;;;;6.43;100.00;98285.47;4719349;29;103477;-74
2021/05/01 05:00:39;;;;;;;51.90;39.97;;;;;;;6.16;100.00;98288.00;4718676;29;103269;-76
2021/05/01 05:03:06;;;;;;;51.73;41.70;;;;;;;6.00;100.00;98282.84;4719049;29;103809;-76
2021/05/01 05:05:37;;;;;;;50.90;40.37;;;;;;;6.25;100.00;98284.81;4717642;29;103449;-77
2021/05/01 05:08:05;;;;;;;54.50;40.50;;;;;;;5.86;100.00;98280.22;4701201;29;103311;-74
2021/05/01 05:10:32;;;;;;;63.20;44.37;;;;;;;5.96;100.00;98286.59;4715196;29;104160;-78
2021/05/01 05:12:59;;;;;;;44.43;37.03;;;;;;;6.24;100.00;98286.59;4736118;29;104036;-75
2021/05/01 05:15:26;;;;;;;66.87;42.70;;;;;;;6.18;100.00;98286.97;4747161;29;103211;-73
2021/05/01 05:17:53;;;;;;;57.23;39.90;;;;;;;6.16;100.00;98288.84;4742062;29;103655;-75
2021/05/01 05:20:22;;;;;;;66.90;44.73;;;;;;;6.27;100.00;98281.16;4738392;29;103415;-77
2021/05/01 05:22:50;;;;;;;70.20;44.83;;;;;;;6.05;100.00;98275.53;4731597;29;109973;-74
2021/05/01 05:25:18;;;;;;;93.93;47.53;;;;;;;6.08;100.00;98285.84;4736251;29;103221;-74
2021/05/01 05:27:45;;;;;;;169.27;50.33;;;;;;;5.91;100.00;98283.41;4737928;29;103112;-84
2021/05/01 05:30:13;;;;;;;95.17;46.00;;;;;;;6.05;100.00;98296.53;4749137;29;103379;-76
2021/05/01 05:32:40;;;;;;;97.73;43.10;;;;;;;6.06;100.00;98295.59;4735444;29;103775;-84
2021/05/01 05:35:08;;;;;;;69.47;39.30;;;;;;;6.25;100.00;98309.28;4736454;29;108840;-85
2021/05/01 05:37:35;;;;;;;68.77;38.37;;;;;;;6.17;100.00;98314.16;4734430;29;103397;-86
2021/05/01 05:40:03;;;;;;;358.50;56.27;;;;;;;5.79;100.00;98300.66;4745810;29;111277;-87
2021/05/01 05:42:32;;;;;;;234.30;54.57;;;;;;;5.91;100.00;98288.63;4754523;29;103957;-82
2021/05/01 05:44:59;;;;;;;145.37;47.23;;;;;;;5.92;100.00;98273.75;4754440;29;103083;-88
2021/05/01 05:47:26;;;;;;;125.60;48.97;;;;;;;5.87;100.00;98271.41;4753057;29;102780;-81
2021/05/01 05:49:53;;;;;;;71.23;42.50;;;;;;;6.22;100.00;98271.88;4735567;29;105265;-85
2021/05/01 05:52:20;;;;;;;64.93;41.13;;;;;;;6.45;100.00;98267.84;4737308;29;104503;-83
2021/05/01 05:54:47;;;;;;;105.20;51.37;;;;;;;6.30;100.00;98259.13;4741347;29;103047;-83
2021/05/01 05:57:14;;;;;;;82.03;47.47;;;;;;;6.45;100.00;98254.72;4737334;29;109068;-77
2021/05/01 05:59:43;;;;;;;86.00;48.00;;;;;;;6.39;100.00;98264.66;4736364;29;103524;-80
2021/05/01 06:02:15;;;;;;;77.30;45.33;;;;;;;6.04;100.00;98268.59;4736080;29;103460;-75
2021/05/01 06:04:50;;;;;;;65.03;40.77;;;;;;;6.70;100.00;98275.88;4736588;29;107041;-80
2021/05/01 06:07:22;;;;;;;58.17;40.23;;;;;;;7.00;100.00;98271.28;4734423;29;102982;-74
2021/05/01 06:09:51;;;;;;;57.20;41.10;;;;;;;7.21;100.00;98277.78;4734551;29;103628;-78
2021/05/01 06:12:20;;;;;;;57.37;40.83;;;;;;;7.35;100.00;98282.97;4735576;29;103783;-77
2021/05/01 06:14:49;;;;;;;54.00;40.73;;;;;;;7.42;100.00;98284.25;4741046;29;102944;-74
2021/05/01 06:17:20;;;;;;;56.47;41.20;;;;;;;7.05;100.00;98279.69;4747871;29;103159;-77
2021/05/01 06:19:49;;;;;;;60.53;40.83;;;;;;;6.73;100.00;98268.66;4747968;29;103508;-74
2021/05/01 06:22:16;;;;;;;59.20;41.30;;;;;;;6.88;100.00;98259.78;4730527;29;104040;-72
2021/05/01 06:24:44;;;;;;;51.10;38.70;;;;;;;7.39;100.00;98260.78;4736100;29;103172;-76
2021/05/01 06:27:16;;;;;;;50.23;37.53;;;;;;;7.68;100.00;98258.84;4728354;29;103114;-77
2021/05/01 06:29:44;;;;;;;42.80;33.03;;;;;;;7.93;100.00;98268.53;4732575;29;104076;-78
2021/05/01 06:32:13;;;;;;;47.20;37.87;;;;;;;7.79;100.00;98261.59;4729702;29;103724;-77
2021/05/01 06:34:44;;;;;;;45.40;36.40;;;;;;;8.00;100.00;98272.44;4732460;29;103146;-76
2021/05/01 06:37:13;;;;;;;38.80;32.40;;;;;;;8.30;100.00;98280.88;4719917;29;103502;-76
2021/05/01 06:39:40;;;;;;;41.93;34.03;;;;;;;8.47;99.38;98280.56;4729822;29;104625;-77
2021/05/01 06:42:12;;;;;;;37.87;32.20;;;;;;;8.43;99.45;98268.53;4726734;29;104587;-76
2021/05/01 06:44:43;;;;;;;43.17;35.27;;;;;;;8.39;97.44;98288.16;4733095;29;103008;-76
2021/05/01 06:47:15;;;;;;;42.80;36.17;;;;;;;8.50;97.03;98280.34;4734298;29;103008;-75
2021/05/01 06:49:52;;;;;;;36.57;30.53;;;;;;;8.61;98.63;98284.84;4744587;29;103278;-75
2021/05/01 06:52:21;;;;;;;40.73;34.07;;;;;;;8.21;98.05;98293.78;4735448;29;103816;-75
2021/05/01 06:54:51;;;;;;;45.13;36.77;;;;;;;7.97;100.00;98286.63;4735266;29;103434;-74
2021/05/01 06:57:22;;;;;;;43.13;34.87;;;;;;;8.20;100.00;98289.50;4740044;29;102698;-74
2021/05/01 06:59:54;;;;;;;42.37;35.43;;;;;;;8.79;99.81;98290.56;4747140;29;107454;-75
2021/05/01 07:02:24;;;;;;;45.90;36.83;;;;;;;8.40;98.24;98295.06;4742525;29;103646;-82
2021/05/01 07:04:52;;;;;;;44.03;36.17;;;;;;;8.47;97.50;98296.34;4751346;29;103695;-82
2021/05/01 07:07:22;;;;;;;39.17;33.23;;;;;;;8.52;97.59;98288.13;4738844;29;104174;-82
2021/05/01 07:09:49;;;;;;;44.53;36.87;;;;;;;8.39;97.23;98277.63;4734778;29;103837;-71
2021/05/01 07:12:19;;;;;;;40.30;35.60;;;;;;;7.71;98.24;98273.56;4713094;29;103861;-71
2021/05/01 07:14:47;;;;;;;38.97;34.00;;;;;;;8.14;96.60;98277.56;4719835;29;108319;-71
2021/05/01 07:17:15;;;;;;;37.03;33.03;;;;;;;8.01;97.45;98268.84;4720510;29;103195;-71
2021/05/01 07:19:45;;;;;;;41.83;35.07;;;;;;;8.01;97.07;98266.22;4716771;29;104050;-81
2021/05/01 07:22:13;;;;;;;36.40;32.40;;;;;;;7.88;95.73;98270.66;4704715;29;107189;-75
2021/05/01 07:24:41;;;;;;;37.63;33.10;;;;;;;8.27;96.11;98267.94;4706254;29;103096;-84
2021/05/01 07:27:09;;;;;;;38.43;34.27;;;;;;;8.28;96.79;98264.34;4720685;29;103358;-77
2021/05/01 07:29:40;;;;;;;34.93;31.20;;;;;;;8.45;93.15;98260.56;4704094;29;105167;-77
2021/05/01 07:32:09;;;;;;;34.47;30.77;;;;;;;8.58;93.61;98259.56;4705036;29;104064;-76
2021/05/01 07:34:37;;;;;;;33.63;30.03;;;;;;;8.98;95.76;98251.44;4718305;29;102700;-77
2021/05/01 07:37:09;;;;;;;33.00;29.10;;;;;;;8.99;90.09;98258.38;4720240;29;103192;-78
2021/05/01 07:39:40;;;;;;;30.40;27.10;;;;;;;8.13;90.22;98260.13;4720250;29;110253;-80
2021/05/01 07:42:10;;;;;;;28.50;25.50;;;;;;;8.52;91.68;98261.78;4720517;29;104050;-77
2021/05/01 07:44:39;;;;;;;24.47;21.97;;;;;;;8.95;89.11;98262.19;4705013;29;103295;-79
2021/05/01 07:47:07;;;;;;;26.07;23.37;;;;;;;9.01;91.40;98274.94;4732967;29;103034;-75
2021/05/01 07:49:37;;;;;;;24.33;21.93;;;;;;;9.24;90.34;98276.72;4719810;29;103519;-79
2021/05/01 07:52:06;;;;;;;26.00;23.30;;;;;;;9.80;87.87;98262.78;4721446;29;103911;-82
2021/05/01 07:54:38;;;;;;;22.37;20.13;;;;;;;9.74;86.57;98249.22;4721400;29;105387;-78
2021/05/01 07:57:05;;;;;;;24.43;21.57;;;;;;;10.03;86.97;98239.91;4711663;29;103510;-83
2021/05/01 07:59:33;;;;;;;29.60;26.60;;;;;;;9.41;86.81;98246.47;4712519;29;110970;-84
2021/05/01 08:02:00;;;;;;;28.40;25.43;;;;;;;8.88;86.16;98248.63;4709194;29;106650;-81
2021/05/01 08:04:29;;;;;;;29.57;26.47;;;;;;;8.96;87.95;98251.53;4698401;29;103043;-80
2021/05/01 08:06:56;;;;;;;26.83;24.10;;;;;;;9.48;87.84;98266.16;4714667;29;103163;-83
2021/05/01 08:09:24;;;;;;;25.10;22.50;;;;;;;9.60;87.75;98263.44;4712117;29;104041;-81
2021/05/01 08:11:51;;;;;;;27.73;25.00;;;;;;;9.28;85.95;98254.44;4738688;29;103885;-81
2021/05/01 08:14:18;;;;;;;28.87;25.97;;;;;;;8.84;89.12;98256.88;4718380;29;103546;-80
2021/05/01 08:16:46;;;;;;;30.27;27.10;;;;;;;9.15;86.31;98245.78;4734956;29;103246;-82
2021/05/01 08:19:14;;;;;;;29.80;26.70;;;;;;;8.96;86.05;98253.31;4729491;29;104104;-86
2021/05/01 08:21:42;;;;;;;25.37;22.83;;;;;;;9.61;87.34;98262.47;4725525;29;103782;-79
2021/05/01 08:24:10;;;;;;;27.03;24.20;;;;;;;9.36;86.19;98270.53;4744096;29;103045;-80
2021/05/01 08:26:38;;;;;;;28.53;25.53;;;;;;;9.50;87.14;98262.44;4740002;29;103081;-82
2021/05/01 08:29:06;;;;;;;29.00;26.10;;;;;;;9.56;85.43;98262.00;4721489;29;108987;-79
2021/05/01 08:31:33;;;;;;;23.57;21.37;;;;;;;9.76;85.36;98268.41;4746761;29;105196;-81
2021/05/01 08:34:00;;;;;;;28.50;25.60;;;;;;;9.61;85.42;98264.28;4716749;29;103313;-79
2021/05/01 08:36:27;;;;;;;28.23;25.33;;;;;;;9.14;86.44;98266.00;4731418;29;103217;-81
2021/05/01 08:38:54;;;;;;;27.60;24.70;;;;;;;8.85;87.12;98269.06;4748680;29;104373;-80
2021/05/01 08:41:22;;;;;;;27.80;24.97;;;;;;;8.62;88.19;98268.91;4738065;29;108002;-81
2021/05/01 08:43:50;;;;;;;28.87;25.97;;;;;;;8.86;88.10;98268.13;4734860;29;103375;-81
2021/05/01 08:46:21;;;;;;;26.93;24.23;;;;;;;8.64;86.53;98272.31;4733908;29;104387;-80
2021/05/01 08:48:49;;;;;;;28.57;25.67;;;;;;;8.85;85.44;98269.91;4719169;29;103910;-81
2021/05/01 08:51:17;;;;;;;28.00;25.30;;;;;;;9.12;86.04;98275.00;4742054;29;104859;-83
2021/05/01 08:53:44;;;;;;;27.30;24.57;;;;;;;8.77;84.76;98276.69;4742889;29;103020;-85
2021/05/01 08:56:12;;;;;;;22.20;20.10;;;;;;;9.51;85.29;98272.06;4735531;29;103361;-85
2021/05/01 08:58:39;;;;;;;27.80;24.83;;;;;;;9.53;85.35;98282.47;4731711;29;103868;-83
2021/05/01 09:01:08;;;;;;;29.57;26.37;;;;;;;8.81;86.75;98278.16;4739589;29;104095;-85
2021/05/01 09:03:36;;;;;;;28.33;25.43;;;;;;;9.10;85.57;98275.09;4748300;29;103293;-85
2021/05/01 09:06:06;;;;;;;24.83;22.27;;;;;;;9.47;85.71;98285.56;4730111;29;104672;-82
2021/05/01 09:08:33;;;;;;;28.47;25.47;;;;;;;9.59;83.85;98277.59;4730991;29;105505;-80
2021/05/01 09:11:03;;;;;;;26.57;24.07;;;;;;;9.38;85.17;98268.63;4740279;29;104497;-82
2021/05/01 09:13:31;;;;;;;28.97;25.97;;;;;;;9.76;85.14;98279.81;4730287;29;103747;-82
2021/05/01 09:16:00;;;;;;;22.53;20.23;;;;;;;10.00;83.11;98273.59;4740852;29;103162;-81
2021/05/01 09:18:42;;;;;;;29.37;26.37;;;;;;;9.16;83.63;98273.78;4734415;29;104915;-83
2021/05/01 09:21:14;;;;;;;26.10;23.47;;;;;;;9.55;84.98;98270.84;4725095;29;109792;-84
2021/05/01 09:23:41;;;;;;;32.00;28.77;;;;;;;9.43;83.23;98266.47;4737527;29;103062;-83
2021/05/01 09:26:09;;;;;;;33.20;29.87;;;;;;;9.32;84.95;98276.97;4746366;29;102943;-84
2021/05/01 09:28:41;;;;;;;31.77;28.47;;;;;;;9.24;85.47;98272.28;4735392;29;109685;-83
2021/05/01 09:31:10;;;;;;;32.57;29.17;;;;;;;9.21;85.22;98259.31;4734666;29;105188;-84
2021/05/01 09:33:39;;;;;;;28.33;25.40;;;;;;;9.42;82.49;98251.63;4733838;29;102741;-84
2021/05/01 09:36:10;;;;;;;28.00;24.97;;;;;;;10.21;81.81;98253.53;4728462;29;106546;-84
2021/05/01 09:38:40;;;;;;;28.23;25.37;;;;;;;9.73;79.08;98258.09;4735401;29;103205;-83
2021/05/01 09:41:16;;;;;;;28.00;25.20;;;;;;;10.16;78.32;98260.97;4728837;29;104278;-82
2021/05/01 09:44:02;;;;;;;27.27;24.47;;;;;;;10.51;78.12;98258.19;4736344;29;104360;-86
2021/05/01 09:46:30;;;;;;;29.27;26.17;;;;;;;9.70;77.67;98259.16;4738716;29;103242;-84
2021/05/01 09:49:08;;;;;;;23.07;20.80;;;;;;;10.60;79.30;98255.66;4732530;29;106654;-84
2021/05/01 09:51:47;;;;;;;20.60;18.60;;;;;;;11.07;77.58;98254.50;4733413;29;104283;-83
2021/05/01 09:54:16;;;;;;;29.40;26.40;;;;;;;10.95;75.85;98253.69;4736112;29;102980;-85
2021/05/01 09:56:45;;;;;;;25.77;23.20;;;;;;;10.87;78.42;98258.75;4733227;29;103342;-83
2021/05/01 09:59:12;;;;;;;31.23;26.80;;;;;;;10.80;77.06;98248.81;4737297;29;104085;-84
2021/05/01 10:01:40;;;;;;;27.30;24.40;;;;;;;10.94;78.13;98245.88;4735000;29;110374;-85
2021/05/01 10:04:18;;;;;;;30.63;27.53;;;;;;;10.07;78.60;98235.25;4735279;29;102752;-79
2021/05/01 10:07:01;;;;;;;31.37;28.03;;;;;;;9.83;81.30;98230.03;4738314;29;103120;-88
2021/05/01 10:09:32;;;;;;;31.23;28.03;;;;;;;10.23;81.20;98238.38;4736478;29;104879;-86
2021/05/01 10:12:10;;;;;;;28.57;25.67;;;;;;;10.53;78.50;98237.75;4738498;29;104943;-83
2021/05/01 10:14:48;;;;;;;31.17;28.03;;;;;;;10.60;80.19;98226.63;4736251;29;103199;-83
2021/05/01 10:17:17;;;;;;;30.33;27.20;;;;;;;10.85;79.86;98228.97;4737188;29;102918;-83
2021/05/01 10:19:51;;;;;;;31.03;27.83;;;;;;;10.19;82.97;98234.31;4734064;29;103817;-84
2021/05/01 10:22:35;;;;;;;28.73;25.93;;;;;;;10.70;82.54;98230.19;4737476;29;104817;-82
2021/05/01 10:25:05;;;;;;;30.73;27.47;;;;;;;10.10;82.14;98233.22;4743354;29;102682;-84
2021/05/01 10:27:43;;;;;;;30.67;27.37;;;;;;;10.24;80.96;98238.28;4742329;29;103338;-86
2021/05/01 10:30:16;;;;;;;30.10;27.10;;;;;;;10.43;80.49;98235.03;4736545;29;104126;-92
2021/05/01 10:32:52;;;;;;;26.50;23.90;;;;;;;11.15;81.79;98232.72;4735412;29;103712;-90
2021/05/01 10:35:22;;;;;;;32.47;29.07;;;;;;;10.91;80.18;98227.63;4737989;29;106808;-86
2021/05/01 10:37:56;;;;;;;31.83;28.63;;;;;;;10.35;82.64;98237.44;4739223;29;103058;-83
2021/05/01 10:40:25;;;;;;;32.03;28.73;;;;;;;10.72;81.01;98238.81;4729944;29;105351;-85
2021/05/01 10:43:12;;;;;;;32.67;29.27;;;;;;;10.89;78.71;98240.97;4720976;29;103764;-80
2021/05/01 10:45:39;;;;;;;34.20;30.77;;;;;;;10.43;83.16;98227.13;4742487;29;103200;-77
2021/05/01 10:48:10;;;;;;;33.07;29.80;;;;;;;10.79;81.76;98225.97;4758763;29;104843;-81
2021/05/01 10:50:38;;;;;;;29.73;26.87;;;;;;;11.16;80.77;98222.03;4744362;29;103860;-83
2021/05/01 10:53:07;;;;;;;34.47;30.70;;;;;;;10.95;82.04;98208.75;4730279;29;106127;-82
2021/05/01 10:55:46;;;;;;;31.50;28.37;;;;;;;11.29;80.75;98221.84;4733500;29;103144;-80
2021/05/01 10:58:29;;;;;;;34.30;30.77;;;;;;;10.79;79.80;98218.03;4738289;29;102936;-79
2021/05/01 11:00:57;;;;;;;32.50;29.03;;;;;;;11.17;80.30;98217.59;4739814;29;104592;-75
2021/05/01 11:03:27;;;;;;;32.93;29.53;;;;;;;10.54;82.39;98213.88;4739275;29;103974;-81
2021/05/01 11:05:59;;;;;;;31.50;28.27;;;;;;;10.71;81.13;98229.25;4748687;29;103273;-77
2021/05/01 11:08:41;;;;;;;34.17;30.57;;;;;;;10.35;81.85;98230.38;4750229;29;102807;-82
2021/05/01 11:11:13;;;;;;;33.53;30.00;;;;;;;10.98;81.31;98223.50;4728931;29;104419;-81
2021/05/01 11:13:48;;;;;;;33.87;30.27;;;;;;;10.88;80.18;98223.44;4738300;29;103858;-82
2021/05/01 11:16:17;;;;;;;33.23;29.83;;;;;;;10.80;81.57;98214.44;4747110;29;102878;-82
2021/05/01 11:18:45;;;;;;;37.33;30.33;;;;;;;10.69;83.66;98217.97;4734937;29;104450;-82